createdAt,value
2018-02-14T00:00:43.694Z,100867.94
2018-02-14T00:03:12.790Z,100856.25
2018-02-14T00:05:41.825Z,100858.88
2018-02-14T00:08:11.192Z,100848.87
2018-02-14T00:10:40.338Z,100850.50
2018-02-14T00:13:09.663Z,100859.41
2018-02-14T00:15:38.786Z,100848.60
2018-02-14T00:18:07.707Z,100841.61
2018-02-14T00:20:36.736Z,100834.86
2018-02-14T00:23:05.762Z,100828.98
2018-02-14T00:25:34.728Z,100832.30
2018-02-14T00:28:03.671Z,100823.72
2018-02-14T00:30:32.662Z,100818.08
2018-02-14T00:33:01.726Z,100812.87
2018-02-14T00:35:30.714Z,100802.19
2018-02-14T00:37:59.773Z,100796.88
2018-02-14T00:40:29.370Z,100791.97
2018-02-14T00:42:58.542Z,100787.98
2018-02-14T00:45:27.627Z,100787.02
2018-02-14T00:47:56.737Z,100786.61
2018-02-14T00:50:25.782Z,100772.58
2018-02-14T00:52:54.761Z,100770.95
2018-02-14T00:55:23.739Z,100771.27
2018-02-14T00:57:52.810Z,100770.90
2018-02-14T01:00:22.340Z,100761.03
2018-02-14T01:02:51.717Z,100765.27
2018-02-14T01:05:21.438Z,100759.91
2018-02-14T01:07:50.884Z,100749.52
2018-02-14T01:10:20.533Z,100746.73
2018-02-14T01:12:49.772Z,100747.48
2018-02-14T01:15:19.438Z,100738.98
2018-02-14T01:17:48.604Z,100736.45
2018-02-14T01:20:17.759Z,100735.14
2018-02-14T01:22:46.924Z,100735.02
2018-02-14T01:25:15.309Z,100732.06
2018-02-14T01:27:44.915Z,100732.34
2018-02-14T01:31:45.307Z,100717.44
2018-02-14T01:34:15.579Z,100712.77
2018-02-14T01:36:44.886Z,100713.77
2018-02-14T01:39:13.876Z,100716.32
2018-02-14T01:41:42.895Z,100707.59
2018-02-14T01:45:01.663Z,100696.17
2018-02-14T01:47:30.755Z,100690.25
2018-02-14T01:50:00.440Z,100688.12
2018-02-14T01:52:29.794Z,100693.05
2018-02-14T01:54:59.452Z,100694.24
2018-02-14T01:57:29.470Z,100690.56
2018-02-14T01:59:59.546Z,100679.68
2018-02-14T02:02:29.196Z,100686.47
2018-02-14T02:04:58.653Z,100683.84
2018-02-14T02:07:28.387Z,100686.03
2018-02-14T02:09:57.757Z,100687.50
2018-02-14T02:12:27.337Z,100689.06
2018-02-14T02:14:56.771Z,100683.38
2018-02-14T02:17:26.420Z,100675.11
2018-02-14T02:19:55.790Z,100668.25
2018-02-14T02:23:58.878Z,100660.74
2018-02-14T02:26:28.442Z,100656.47
2018-02-14T02:28:58.463Z,100645.25
2018-02-14T02:31:27.904Z,100643.92
2018-02-14T02:39:57.341Z,100633.27
2018-02-14T02:42:27.433Z,100625.45
2018-02-14T02:44:56.891Z,100613.95
2018-02-14T02:47:25.808Z,100624.33
2018-02-14T02:49:54.826Z,100622.66
2018-02-14T02:52:24.178Z,100611.97
2018-02-14T02:54:53.935Z,100610.84
2018-02-14T02:57:22.723Z,100609.56
2018-02-14T02:59:51.912Z,100624.29
2018-02-14T03:02:20.696Z,100619.23
2018-02-14T03:05:24.929Z,100620.26
2018-02-14T03:07:53.540Z,100622.75
2018-02-14T03:10:22.696Z,100618.57
2018-02-14T03:12:51.882Z,100612.07
2018-02-14T03:15:20.730Z,100619.56
2018-02-14T03:17:50.186Z,100616.83
2018-02-14T03:20:18.639Z,100619.95
2018-02-14T03:22:48.388Z,100622.63
2018-02-14T03:28:00.892Z,100599.80
2018-02-14T03:30:29.622Z,100605.70
2018-02-14T03:32:58.715Z,100609.39
2018-02-14T03:35:27.742Z,100608.61
2018-02-14T03:37:57.373Z,100595.27
2018-02-14T03:40:26.524Z,100596.34
2018-02-14T03:44:54.486Z,100579.70
2018-02-14T03:47:23.533Z,100573.06
2018-02-14T03:49:52.684Z,100574.92
2018-02-14T03:52:21.722Z,100577.77
2018-02-14T03:54:50.730Z,100578.56
2018-02-14T03:57:19.748Z,100578.21
2018-02-14T03:59:49.213Z,100570.43
2018-02-14T04:02:18.803Z,100564.59
2018-02-14T04:04:48.449Z,100550.20
2018-02-14T04:07:17.627Z,100548.25
2018-02-14T04:09:46.807Z,100544.41
2018-02-14T04:12:15.843Z,100551.00
2018-02-14T04:14:45.237Z,100548.31
2018-02-14T04:17:14.681Z,100544.08
2018-02-14T04:19:43.932Z,100551.08
2018-02-14T04:22:12.460Z,100547.95
2018-02-14T04:24:42.176Z,100544.73
2018-02-14T04:27:11.777Z,100545.37
2018-02-14T04:29:40.899Z,100542.19
2018-02-14T04:32:09.899Z,100536.75
2018-02-14T04:34:38.385Z,100531.33
2018-02-14T04:37:07.878Z,100530.22
2018-02-14T04:39:36.861Z,100516.49
2018-02-14T04:42:05.863Z,100513.80
2018-02-14T04:44:34.896Z,100518.50
2018-02-14T04:47:03.846Z,100509.39
2018-02-14T04:49:33.427Z,100514.09
2018-02-14T04:52:02.895Z,100508.27
2018-02-14T04:54:32.261Z,100505.77
2018-02-14T04:57:01.879Z,100522.63
2018-02-14T04:59:31.009Z,100518.94
2018-02-14T05:01:59.796Z,100521.25
2018-02-14T05:04:29.578Z,100522.95
2018-02-14T05:06:59.356Z,100525.70
2018-02-14T05:09:28.873Z,100524.45
2018-02-14T05:11:58.204Z,100527.96
2018-02-14T05:14:27.922Z,100518.47
2018-02-14T05:18:54.383Z,100523.75
2018-02-14T05:21:23.871Z,100517.09
2018-02-14T05:23:53.208Z,100517.43
2018-02-14T05:26:22.530Z,100520.03
2018-02-14T05:28:51.893Z,100520.78
2018-02-14T05:31:20.351Z,100510.78
2018-02-14T05:33:49.920Z,100509.88
2018-02-14T05:36:18.725Z,100519.98
2018-02-14T05:38:48.063Z,100509.08
2018-02-14T05:41:16.731Z,100495.20
2018-02-14T05:43:46.415Z,100503.45
2018-02-14T05:46:15.920Z,100508.72
2018-02-14T05:48:44.600Z,100502.98
2018-02-14T05:51:14.212Z,100503.60
2018-02-14T05:53:43.595Z,100509.44
2018-02-14T05:56:13.205Z,100500.56
2018-02-14T05:58:42.882Z,100486.16
2018-02-14T06:01:12.209Z,100494.95
2018-02-14T06:03:41.893Z,100494.55
2018-02-14T06:06:10.980Z,100484.33
2018-02-14T06:08:39.679Z,100486.50
2018-02-14T06:11:09.439Z,100483.20
2018-02-14T06:13:38.806Z,100494.19
2018-02-14T06:16:07.959Z,100489.79
2018-02-14T06:18:36.718Z,100477.87
2018-02-14T06:21:05.878Z,100483.77
2018-02-14T06:23:34.899Z,100487.03
2018-02-14T06:28:20.260Z,100486.05
2018-02-14T06:30:50.201Z,100490.03
2018-02-14T06:33:18.802Z,100472.74
2018-02-14T06:35:48.420Z,100483.08
2018-02-14T06:38:17.826Z,100482.36
2018-02-14T06:42:35.878Z,100477.92
2018-02-14T06:45:05.049Z,100471.02
2018-02-14T06:49:57.421Z,100478.91
2018-02-14T06:52:26.805Z,100471.58
2018-02-14T06:54:56.396Z,100466.97
2018-02-14T06:57:26.195Z,100472.04
2018-02-14T06:59:55.769Z,100463.73
2018-02-14T07:02:25.819Z,100457.48
2018-02-14T07:04:55.618Z,100463.40
2018-02-14T07:07:25.219Z,100465.84
2018-02-14T07:09:54.834Z,100462.94
2018-02-14T07:12:23.808Z,100468.03
2018-02-14T07:14:53.184Z,100459.62
2018-02-14T07:17:22.831Z,100465.45
2018-02-14T07:19:51.887Z,100462.27
2018-02-14T07:22:20.293Z,100459.03
2018-02-14T07:24:49.477Z,100455.57
2018-02-14T07:27:18.703Z,100469.81
2018-02-14T07:30:15.420Z,100470.53
2018-02-14T07:32:44.767Z,100467.27
2018-02-14T07:35:13.729Z,100482.38
2018-02-14T07:37:42.743Z,100478.45
2018-02-14T07:40:11.768Z,100482.13
2018-02-14T07:42:40.706Z,100484.12
2018-02-14T07:47:55.719Z,100486.38
2018-02-14T07:50:25.269Z,100483.34
2018-02-14T07:55:42.459Z,100483.41
2018-02-14T07:58:11.679Z,100479.63
2018-02-14T08:00:40.870Z,100475.91
2018-02-14T08:03:09.758Z,100471.52
2018-02-14T08:05:38.900Z,100479.56
2018-02-14T08:08:07.642Z,100478.20
2018-02-14T08:10:37.359Z,100471.34
2018-02-14T08:14:19.730Z,100470.61
2018-02-14T08:16:48.910Z,100467.87
2018-02-14T08:19:17.317Z,100475.45
2018-02-14T08:21:46.692Z,100488.05
2018-02-14T08:27:44.533Z,100480.19
2018-02-14T08:30:13.691Z,100481.94
2018-02-14T08:32:42.804Z,100477.87
2018-02-14T08:35:11.744Z,100479.86
2018-02-14T08:37:40.916Z,100483.70
2018-02-14T08:40:09.445Z,100479.34
2018-02-14T08:45:50.761Z,100474.70
2018-02-14T08:48:19.883Z,100474.76
2018-02-14T08:50:49.359Z,100476.08
2018-02-14T08:53:18.906Z,100474.60
2018-02-14T08:56:52.795Z,100481.41
2018-02-14T08:59:22.400Z,100484.47
2018-02-14T09:01:51.498Z,100481.32
2018-02-14T09:04:20.889Z,100479.77
2018-02-14T09:06:49.926Z,100472.19
2018-02-14T09:09:18.395Z,100474.04
2018-02-14T09:14:01.683Z,100466.70
2018-02-14T09:16:30.776Z,100469.63
2018-02-14T09:18:59.809Z,100466.42
2018-02-14T09:21:28.703Z,100459.58
2018-02-14T09:23:58.631Z,100463.50
2018-02-14T09:26:27.747Z,100475.00
2018-02-14T09:28:56.787Z,100480.45
2018-02-14T09:31:50.712Z,100489.55
2018-02-14T09:34:19.817Z,100484.14
2018-02-14T09:36:48.762Z,100487.13
2018-02-14T09:39:17.743Z,100482.76
2018-02-14T09:41:47.770Z,100480.20
2018-02-14T09:44:16.723Z,100484.14
2018-02-14T09:46:45.794Z,100477.72
2018-02-14T09:49:14.811Z,100480.12
2018-02-14T09:51:43.817Z,100470.22
2018-02-14T09:54:13.385Z,100467.14
2018-02-14T09:56:42.705Z,100456.60
2018-02-14T09:59:11.694Z,100449.80
2018-02-14T10:03:21.646Z,100455.80
2018-02-14T10:05:50.743Z,100445.85
2018-02-14T10:08:20.409Z,100446.93
2018-02-14T10:10:49.535Z,100450.23
2018-02-14T10:13:18.672Z,100451.28
2018-02-14T10:15:47.680Z,100452.86
2018-02-14T10:18:16.668Z,100455.70
2018-02-14T10:22:16.556Z,100447.59
2018-02-14T10:24:46.053Z,100450.54
2018-02-14T10:27:14.723Z,100446.73
2018-02-14T10:29:43.685Z,100438.70
2018-02-14T10:32:12.840Z,100443.11
2018-02-14T10:34:41.690Z,100446.63
2018-02-14T10:37:10.650Z,100434.00
2018-02-14T10:39:39.631Z,100434.66
2018-02-14T10:42:08.676Z,100431.61
2018-02-14T10:44:37.679Z,100432.99
2018-02-14T10:47:06.714Z,100436.12
2018-02-14T10:49:35.651Z,100440.13
2018-02-14T10:52:04.747Z,100441.75
2018-02-14T10:54:33.936Z,100439.76
2018-02-14T10:57:02.693Z,100431.07
2018-02-14T10:59:31.880Z,100434.64
2018-02-14T11:02:15.628Z,100427.04
2018-02-14T11:07:52.213Z,100425.19
2018-02-14T11:10:21.901Z,100428.71
2018-02-14T11:12:50.652Z,100427.88
2018-02-14T11:15:19.892Z,100420.49
2018-02-14T11:17:49.376Z,100415.36
2018-02-14T11:20:19.019Z,100413.06
2018-02-14T11:22:48.464Z,100407.31
2018-02-14T11:25:17.777Z,100406.03
2018-02-14T11:27:46.796Z,100397.27
2018-02-14T11:30:15.803Z,100396.17
2018-02-14T11:32:44.906Z,100388.14
2018-02-14T11:35:13.939Z,100397.70
2018-02-14T11:37:42.715Z,100399.72
2018-02-14T11:40:12.394Z,100399.72
2018-02-14T11:42:41.926Z,100396.47
2018-02-14T11:45:10.682Z,100400.13
2018-02-14T11:47:39.780Z,100407.15
2018-02-14T11:50:08.794Z,100394.68
2018-02-14T11:52:37.782Z,100390.02
2018-02-14T11:55:06.815Z,100394.59
2018-02-14T11:57:36.478Z,100381.45
2018-02-14T12:00:05.903Z,100384.95
2018-02-14T12:02:34.417Z,100388.78
2018-02-14T12:05:03.934Z,100400.77
2018-02-14T12:07:32.434Z,100396.61
2018-02-14T12:12:44.619Z,100395.20
2018-02-14T12:15:14.020Z,100389.51
2018-02-14T12:17:42.697Z,100400.89
2018-02-14T12:20:12.188Z,100397.65
2018-02-14T12:22:41.817Z,100402.14
2018-02-14T12:25:10.929Z,100396.05
2018-02-14T12:27:39.598Z,100400.09
2018-02-14T12:30:08.891Z,100395.42
2018-02-14T12:32:38.172Z,100394.83
2018-02-14T12:35:06.811Z,100392.73
2018-02-14T12:37:35.871Z,100394.66
2018-02-14T12:40:05.755Z,100394.59
2018-02-14T12:45:05.679Z,100407.66
2018-02-14T12:47:35.456Z,100406.53
2018-02-14T12:50:04.819Z,100411.67
2018-02-14T12:52:34.471Z,100415.54
2018-02-14T12:55:03.922Z,100414.47
2018-02-14T12:57:32.839Z,100414.66
2018-02-14T13:01:21.427Z,100421.35
2018-02-14T13:03:50.909Z,100429.80
2018-02-14T13:06:19.707Z,100421.89
2018-02-14T13:08:48.773Z,100418.94
2018-02-14T13:11:18.206Z,100420.70
2018-02-14T13:13:47.398Z,100429.49
2018-02-14T13:16:16.653Z,100427.80
2018-02-14T13:18:46.423Z,100434.73
2018-02-14T13:21:54.671Z,100435.55
2018-02-14T13:24:23.715Z,100432.68
2018-02-14T13:26:53.071Z,100432.81
2018-02-14T13:29:22.686Z,100428.78
2018-02-14T13:31:51.744Z,100435.66
2018-02-14T13:34:20.978Z,100426.13
2018-02-14T13:36:49.635Z,100426.10
2018-02-14T13:39:18.814Z,100426.02
2018-02-14T13:41:48.212Z,100428.80
2018-02-14T13:44:17.731Z,100433.92
2018-02-14T13:46:46.717Z,100447.53
2018-02-14T13:49:16.397Z,100446.14
2018-02-14T13:51:45.883Z,100445.30
2018-02-14T13:54:14.867Z,100450.78
2018-02-14T13:56:43.787Z,100444.16
2018-02-14T13:59:12.851Z,100447.76
2018-02-14T14:01:41.868Z,100448.86
2018-02-14T14:04:10.771Z,100440.95
2018-02-14T14:06:39.883Z,100442.58
2018-02-14T14:09:08.621Z,100440.61
2018-02-14T14:11:37.886Z,100439.00
2018-02-14T14:14:32.835Z,100441.38
2018-02-14T14:17:01.756Z,100442.41
2018-02-14T14:19:30.760Z,100440.03
2018-02-14T14:22:04.781Z,100447.73
2018-02-14T14:24:33.728Z,100440.14
2018-02-14T14:27:07.732Z,100443.03
2018-02-14T14:29:36.794Z,100451.00
2018-02-14T14:32:05.751Z,100451.11
2018-02-14T14:34:34.724Z,100451.90
2018-02-14T14:37:03.915Z,100458.19
2018-02-14T14:39:32.511Z,100453.94
2018-02-14T14:42:01.809Z,100457.64
2018-02-14T14:44:30.788Z,100454.72
2018-02-14T14:46:59.699Z,100456.80
2018-02-14T14:49:28.889Z,100466.55
2018-02-14T14:51:57.194Z,100474.30
2018-02-14T14:54:26.466Z,100474.28
2018-02-14T14:56:55.875Z,100474.64
2018-02-14T14:59:25.142Z,100477.72
2018-02-14T15:01:54.217Z,100480.60
2018-02-14T15:04:41.784Z,100481.16
2018-02-14T15:07:10.756Z,100478.48
2018-02-14T15:09:40.582Z,100480.48
2018-02-14T15:12:09.718Z,100479.12
2018-02-14T15:14:38.708Z,100487.23
2018-02-14T15:17:07.747Z,100485.34
2018-02-14T15:19:36.773Z,100492.03
2018-02-14T15:22:05.683Z,100498.97
2018-02-14T15:24:34.743Z,100495.55
2018-02-14T15:27:03.647Z,100496.93
2018-02-14T15:29:32.647Z,100499.86
2018-02-14T15:32:01.692Z,100499.59
2018-02-14T15:37:15.699Z,100509.95
2018-02-14T15:39:44.704Z,100514.20
2018-02-14T15:42:14.344Z,100517.84
2018-02-14T15:44:44.383Z,100522.59
2018-02-14T15:47:13.758Z,100529.08
2018-02-14T15:49:43.243Z,100538.33
2018-02-14T15:52:12.771Z,100550.30
2018-02-14T15:54:42.023Z,100557.82
2018-02-14T15:57:10.902Z,100561.06
2018-02-14T15:59:40.446Z,100565.81
2018-02-14T16:02:10.222Z,100575.51
2018-02-14T16:04:39.815Z,100585.68
2018-02-14T16:07:08.927Z,100590.23
2018-02-14T16:09:37.364Z,100604.27
2018-02-14T16:12:07.396Z,100601.58
2018-02-14T16:14:36.806Z,100603.28
2018-02-14T16:17:05.944Z,100605.01
2018-02-14T16:19:34.450Z,100614.49
2018-02-14T16:22:03.884Z,100612.83
2018-02-14T16:24:32.899Z,100618.88
2018-02-14T16:27:01.893Z,100639.73
2018-02-14T16:29:31.244Z,100633.75
2018-02-14T16:32:00.798Z,100637.66
2018-02-14T16:34:29.918Z,100643.72
2018-02-14T16:36:58.931Z,100642.76
2018-02-14T16:39:27.703Z,100648.95
2018-02-14T16:41:56.836Z,100650.74
2018-02-14T16:44:25.917Z,100648.54
2018-02-14T16:46:54.600Z,100650.06
2018-02-14T16:49:24.448Z,100662.25
2018-02-14T16:51:53.936Z,100667.55
2018-02-14T16:54:22.506Z,100673.61
2018-02-14T16:57:57.681Z,100677.81
2018-02-14T17:02:59.898Z,100692.05
2018-02-14T17:05:29.483Z,100702.96
2018-02-14T17:07:58.729Z,100707.34
2018-02-14T17:10:27.817Z,100714.30
2018-02-14T17:12:56.887Z,100723.09
2018-02-14T17:15:25.841Z,100736.23
2018-02-14T17:21:14.878Z,100748.23
2018-02-14T17:23:43.927Z,100755.27
2018-02-14T17:26:12.699Z,100752.88
2018-02-14T17:28:41.882Z,100761.12
2018-02-14T17:31:10.936Z,100763.73
2018-02-14T17:33:39.707Z,100766.41
2018-02-14T17:38:33.774Z,100771.03
2018-02-14T17:43:10.771Z,100769.42
2018-02-14T17:46:17.678Z,100773.81
2018-02-14T17:48:46.887Z,100781.88
2018-02-14T17:51:16.383Z,100783.87
2018-02-14T17:53:45.779Z,100795.98
2018-02-14T17:56:15.395Z,100797.76
2018-02-14T17:58:44.644Z,100804.13
2018-02-14T18:01:42.463Z,100816.13
2018-02-14T18:04:11.963Z,100816.73
2018-02-14T18:06:40.537Z,100826.42
2018-02-14T18:09:09.794Z,100837.61
2018-02-14T18:11:38.795Z,100847.89
2018-02-14T18:14:08.224Z,100856.61
2018-02-14T18:16:37.599Z,100854.24
2018-02-14T18:19:06.823Z,100849.12
2018-02-14T18:21:36.226Z,100848.33
2018-02-14T18:24:05.896Z,100843.16
2018-02-14T18:26:34.879Z,100849.72
2018-02-14T18:29:04.224Z,100856.11
2018-02-14T18:31:33.615Z,100862.27
2018-02-14T18:34:02.863Z,100868.05
2018-02-14T18:36:31.992Z,100880.19
2018-02-14T18:39:00.689Z,100880.58
2018-02-14T18:41:30.663Z,100892.81
2018-02-14T18:44:00.195Z,100892.19
2018-02-14T18:46:29.304Z,100895.44
2018-02-14T18:48:58.815Z,100888.84
2018-02-14T18:51:28.117Z,100898.47
2018-02-14T18:59:45.526Z,100907.31
2018-02-14T19:02:14.671Z,100912.55
2018-02-14T19:04:44.249Z,100913.61
2018-02-14T19:07:13.909Z,100921.64
2018-02-14T19:09:42.743Z,100917.86
2018-02-14T19:14:57.611Z,100933.09
2018-02-14T19:17:26.959Z,100940.53
2018-02-14T19:19:55.813Z,100945.25
2018-02-14T19:22:25.353Z,100947.20
2018-02-14T19:24:54.591Z,100953.30
2018-02-14T19:27:24.063Z,100956.99
2018-02-14T19:29:53.579Z,100955.44
2018-02-14T19:32:22.879Z,100953.09
2018-02-14T19:34:52.491Z,100957.30
2018-02-14T19:37:21.915Z,100964.08
2018-02-14T19:39:50.456Z,100962.08
2018-02-14T19:42:19.656Z,100969.55
2018-02-14T19:44:49.459Z,100965.41
2018-02-14T19:47:19.450Z,100965.17
2018-02-14T19:49:48.583Z,100963.09
2018-02-14T19:53:57.180Z,100960.75
2018-02-14T19:59:15.901Z,100970.02
2018-02-14T20:01:44.446Z,100971.27
2018-02-14T20:04:13.716Z,100972.55
2018-02-14T20:09:39.726Z,100981.42
2018-02-14T20:13:00.757Z,100982.59
2018-02-14T20:15:30.360Z,100987.17
2018-02-14T20:17:59.729Z,100984.91
2018-02-14T20:20:28.810Z,100992.27
2018-02-14T20:22:57.884Z,100995.73
2018-02-14T20:25:27.025Z,101000.48
2018-02-14T20:27:55.702Z,101000.47
2018-02-14T20:30:24.866Z,101000.19
2018-02-14T20:32:55.234Z,101011.33
2018-02-14T20:35:24.769Z,101014.77
2018-02-14T20:37:54.318Z,101024.08
2018-02-14T20:40:24.214Z,101029.34
2018-02-14T20:42:53.803Z,101044.32
2018-02-14T20:49:43.863Z,101029.56
2018-02-14T20:52:13.216Z,101027.59
2018-02-14T20:54:42.897Z,101030.39
2018-02-14T20:57:11.581Z,101029.52
2018-02-14T20:59:40.788Z,101038.88
2018-02-14T21:02:09.899Z,101050.16
2018-02-14T21:05:44.664Z,101053.23
2018-02-14T21:08:13.799Z,101052.36
2018-02-14T21:10:42.707Z,101058.48
2018-02-14T21:13:11.882Z,101062.80
2018-02-14T21:15:40.912Z,101058.40
2018-02-14T21:18:09.735Z,101072.72
2018-02-14T21:20:38.964Z,101076.95
2018-02-14T21:23:07.484Z,101084.42
2018-02-14T21:25:36.595Z,101084.11
2018-02-14T21:28:05.787Z,101084.63
2018-02-14T21:30:35.002Z,101093.98
2018-02-14T21:33:03.795Z,101095.86
2018-02-14T21:35:33.478Z,101094.12
2018-02-14T21:38:02.823Z,101109.11
2018-02-14T21:40:32.196Z,101111.91
2018-02-14T21:43:02.201Z,101106.88
2018-02-14T21:45:31.901Z,101111.30
2018-02-14T21:48:00.910Z,101116.64
2018-02-14T21:50:29.667Z,101123.62
2018-02-14T21:52:59.116Z,101123.45
2018-02-14T21:55:28.027Z,101125.81
2018-02-14T21:57:56.738Z,101123.95
2018-02-14T22:00:26.209Z,101133.63
2018-02-14T22:02:55.899Z,101117.17
2018-02-14T22:05:24.615Z,101125.88
2018-02-14T22:07:53.805Z,101128.00
2018-02-14T22:10:22.978Z,101132.73
2018-02-14T22:12:51.704Z,101141.77
2018-02-14T22:15:20.804Z,101146.69
2018-02-14T22:17:49.895Z,101147.09
2018-02-14T22:20:18.683Z,101153.70
2018-02-14T22:22:47.759Z,101166.80
2018-02-14T22:25:17.458Z,101164.00
2018-02-14T22:28:37.345Z,101165.53
2018-02-14T22:31:06.576Z,101156.98
2018-02-14T22:33:36.280Z,101162.00
2018-02-14T22:36:05.648Z,101160.94
2018-02-14T22:38:58.386Z,101158.06
2018-02-14T22:41:27.523Z,101160.34
2018-02-14T22:43:56.643Z,101166.71
2018-02-14T22:46:25.743Z,101176.66
2018-02-14T22:48:54.626Z,101175.35
2018-02-14T22:51:23.740Z,101184.33
2018-02-14T22:53:53.381Z,101186.15
2018-02-14T22:56:23.209Z,101195.20
2018-02-14T22:58:52.607Z,101192.70
2018-02-14T23:01:21.884Z,101204.92
2018-02-14T23:03:51.487Z,101200.38
2018-02-14T23:06:21.513Z,101199.71
2018-02-14T23:08:51.450Z,101199.36
2018-02-14T23:11:21.223Z,101208.78
2018-02-14T23:13:50.578Z,101206.38
2018-02-14T23:16:20.182Z,101202.69
2018-02-14T23:18:49.910Z,101201.41
2018-02-14T23:21:18.217Z,101200.11
2018-02-14T23:23:47.896Z,101193.37
2018-02-14T23:26:16.571Z,101197.21
2018-02-14T23:28:45.822Z,101197.74
2018-02-14T23:31:15.041Z,101202.46
2018-02-14T23:33:44.330Z,101212.52
2018-02-14T23:36:13.884Z,101218.25
2018-02-14T23:38:43.178Z,101220.84
2018-02-14T23:41:12.056Z,101221.52
2018-02-14T23:43:41.764Z,101225.28
2018-02-14T23:46:11.221Z,101226.03
2018-02-14T23:49:28.607Z,101222.14
2018-02-14T23:51:58.386Z,101216.22
2018-02-14T23:54:27.900Z,101220.13
2018-02-14T23:56:57.192Z,101219.14
2018-02-14T23:59:26.632Z,101231.45
